sensor_id;sensor_type;location;lat;lon;timestamp;P1;durP1;ratioP1;P2;durP2;ratioP2
77234;SDS011;66253;50.526;14.974;2024-01-16T00:02:17;2.90;;;0.80;;
77234;SDS011;66253;50.526;14.974;2024-01-16T00:04:45;2.60;;;0.70;;
77234;SDS011;66253;50.526;14.974;2024-01-16T00:07:13;4.50;;;0.70;;
77234;SDS011;66253;50.526;14.974;2024-01-16T00:09:42;3.60;;;0.80;;
77234;SDS011;66253;50.526;14.974;2024-01-16T00:12:10;2.80;;;0.90;;
77234;SDS011;66253;50.526;14.974;2024-01-16T00:14:38;2.50;;;0.60;;
77234;SDS011;66253;50.526;14.974;2024-01-16T00:17:06;2.00;;;0.40;;
77234;SDS011;66253;50.526;14.974;2024-01-16T00:19:35;2.40;;;0.70;;
77234;SDS011;66253;50.526;14.974;2024-01-16T00:22:03;3.00;;;0.80;;
77234;SDS011;66253;50.526;14.974;2024-01-16T00:24:32;3.00;;;0.70;;
77234;SDS011;66253;50.526;14.974;2024-01-16T00:27:00;3.40;;;0.90;;
77234;SDS011;66253;50.526;14.974;2024-01-16T00:29:28;3.00;;;0.70;;
77234;SDS011;66253;50.526;14.974;2024-01-16T00:31:56;2.80;;;0.70;;
77234;SDS011;66253;50.526;14.974;2024-01-16T00:34:25;2.70;;;1.00;;
77234;SDS011;66253;50.526;14.974;2024-01-16T00:36:53;3.30;;;0.70;;
77234;SDS011;66253;50.526;14.974;2024-01-16T00:39:21;2.50;;;0.70;;
77234;SDS011;66253;50.526;14.974;2024-01-16T00:41:49;2.70;;;0.70;;
77234;SDS011;66253;50.526;14.974;2024-01-16T00:44:18;3.20;;;0.50;;
77234;SDS011;66253;50.526;14.974;2024-01-16T00:46:46;2.80;;;0.80;;
77234;SDS011;66253;50.526;14.974;2024-01-16T00:49:14;3.80;;;0.70;;
77234;SDS011;66253;50.526;14.974;2024-01-16T00:51:42;2.00;;;0.50;;
77234;SDS011;66253;50.526;14.974;2024-01-16T00:54:11;3.60;;;0.60;;
77234;SDS011;66253;50.526;14.974;2024-01-16T00:56:41;3.30;;;0.50;;
77234;SDS011;66253;50.526;14.974;2024-01-16T00:59:09;3.50;;;0.50;;
77234;SDS011;66253;50.526;14.974;2024-01-16T01:01:38;1.90;;;0.40;;
77234;SDS011;66253;50.526;14.974;2024-01-16T01:04:06;3.60;;;0.60;;
77234;SDS011;66253;50.526;14.974;2024-01-16T01:06:34;2.30;;;0.50;;
77234;SDS011;66253;50.526;14.974;2024-01-16T01:09:03;2.90;;;0.60;;
77234;SDS011;66253;50.526;14.974;2024-01-16T01:11:31;3.00;;;0.50;;
77234;SDS011;66253;50.526;14.974;2024-01-16T01:13:59;2.50;;;0.50;;
77234;SDS011;66253;50.526;14.974;2024-01-16T01:16:28;2.00;;;0.50;;
77234;SDS011;66253;50.526;14.974;2024-01-16T01:18:56;1.90;;;0.40;;
77234;SDS011;66253;50.526;14.974;2024-01-16T01:21:24;3.10;;;0.50;;
77234;SDS011;66253;50.526;14.974;2024-01-16T01:23:53;3.10;;;0.40;;
77234;SDS011;66253;50.526;14.974;2024-01-16T01:26:21;3.60;;;0.70;;
77234;SDS011;66253;50.526;14.974;2024-01-16T01:28:49;3.40;;;0.60;;
77234;SDS011;66253;50.526;14.974;2024-01-16T01:31:17;3.10;;;0.70;;
77234;SDS011;66253;50.526;14.974;2024-01-16T01:33:46;3.60;;;0.80;;
77234;SDS011;66253;50.526;14.974;2024-01-16T01:36:14;4.90;;;1.50;;
77234;SDS011;66253;50.526;14.974;2024-01-16T01:38:42;4.60;;;0.90;;
77234;SDS011;66253;50.526;14.974;2024-01-16T01:41:10;3.70;;;0.60;;
77234;SDS011;66253;50.526;14.974;2024-01-16T01:43:39;2.40;;;0.70;;
77234;SDS011;66253;50.526;14.974;2024-01-16T01:46:11;3.90;;;1.20;;
77234;SDS011;66253;50.526;14.974;2024-01-16T01:48:41;4.90;;;1.10;;
77234;SDS011;66253;50.526;14.974;2024-01-16T01:51:10;4.90;;;1.00;;
77234;SDS011;66253;50.526;14.974;2024-01-16T01:53:41;2.80;;;0.60;;
77234;SDS011;66253;50.526;14.974;2024-01-16T01:56:11;3.70;;;1.20;;
77234;SDS011;66253;50.526;14.974;2024-01-16T01:58:40;4.10;;;0.90;;
77234;SDS011;66253;50.526;14.974;2024-01-16T02:01:13;3.00;;;0.70;;
77234;SDS011;66253;50.526;14.974;2024-01-16T02:03:44;3.00;;;0.50;;
77234;SDS011;66253;50.526;14.974;2024-01-16T02:06:13;2.40;;;0.50;;
77234;SDS011;66253;50.526;14.974;2024-01-16T02:08:42;2.30;;;0.60;;
77234;SDS011;66253;50.526;14.974;2024-01-16T02:11:11;3.10;;;0.40;;
77234;SDS011;66253;50.526;14.974;2024-01-16T02:13:39;2.90;;;0.70;;
77234;SDS011;66253;50.526;14.974;2024-01-16T02:16:08;3.00;;;0.40;;
77234;SDS011;66253;50.526;14.974;2024-01-16T02:18:48;2.50;;;0.60;;
77234;SDS011;66253;50.526;14.974;2024-01-16T02:21:17;2.60;;;0.50;;
77234;SDS011;66253;50.526;14.974;2024-01-16T02:23:48;2.00;;;0.70;;
77234;SDS011;66253;50.526;14.974;2024-01-16T02:26:16;2.20;;;0.50;;
77234;SDS011;66253;50.526;14.974;2024-01-16T02:28:45;3.40;;;0.80;;
77234;SDS011;66253;50.526;14.974;2024-01-16T02:31:13;2.90;;;0.70;;
77234;SDS011;66253;50.526;14.974;2024-01-16T02:33:42;3.80;;;0.60;;
77234;SDS011;66253;50.526;14.974;2024-01-16T02:36:11;3.10;;;0.90;;
77234;SDS011;66253;50.526;14.974;2024-01-16T02:38:40;4.20;;;0.60;;
77234;SDS011;66253;50.526;14.974;2024-01-16T02:41:08;2.30;;;0.50;;
77234;SDS011;66253;50.526;14.974;2024-01-16T02:43:39;4.20;;;0.70;;
77234;SDS011;66253;50.526;14.974;2024-01-16T02:46:10;2.60;;;1.00;;
77234;SDS011;66253;50.526;14.974;2024-01-16T02:48:38;2.50;;;0.60;;
77234;SDS011;66253;50.526;14.974;2024-01-16T02:51:07;2.90;;;0.80;;
77234;SDS011;66253;50.526;14.974;2024-01-16T02:53:35;2.20;;;0.60;;
77234;SDS011;66253;50.526;14.974;2024-01-16T02:56:04;2.30;;;0.40;;
77234;SDS011;66253;50.526;14.974;2024-01-16T02:58:34;1.80;;;0.40;;
77234;SDS011;66253;50.526;14.974;2024-01-16T03:01:02;2.90;;;0.50;;
77234;SDS011;66253;50.526;14.974;2024-01-16T03:03:31;3.60;;;1.00;;
77234;SDS011;66253;50.526;14.974;2024-01-16T03:05:59;5.50;;;0.70;;
77234;SDS011;66253;50.526;14.974;2024-01-16T03:08:28;4.20;;;1.40;;
77234;SDS011;66253;50.526;14.974;2024-01-16T03:10:56;3.60;;;0.80;;
77234;SDS011;66253;50.526;14.974;2024-01-16T03:13:25;5.20;;;1.30;;
77234;SDS011;66253;50.526;14.974;2024-01-16T03:15:53;3.10;;;1.10;;
77234;SDS011;66253;50.526;14.974;2024-01-16T03:18:21;6.50;;;2.10;;
77234;SDS011;66253;50.526;14.974;2024-01-16T03:20:50;3.30;;;1.30;;
77234;SDS011;66253;50.526;14.974;2024-01-16T03:23:18;3.30;;;1.30;;
77234;SDS011;66253;50.526;14.974;2024-01-16T03:25:46;5.10;;;1.50;;
77234;SDS011;66253;50.526;14.974;2024-01-16T03:28:14;4.50;;;1.60;;
77234;SDS011;66253;50.526;14.974;2024-01-16T03:30:43;5.60;;;1.30;;
77234;SDS011;66253;50.526;14.974;2024-01-16T03:33:11;3.00;;;0.80;;
77234;SDS011;66253;50.526;14.974;2024-01-16T03:35:39;3.90;;;0.90;;
77234;SDS011;66253;50.526;14.974;2024-01-16T03:38:08;4.60;;;0.90;;
77234;SDS011;66253;50.526;14.974;2024-01-16T03:40:36;5.20;;;2.60;;
77234;SDS011;66253;50.526;14.974;2024-01-16T03:43:04;5.30;;;1.30;;
77234;SDS011;66253;50.526;14.974;2024-01-16T03:45:32;5.50;;;1.60;;
77234;SDS011;66253;50.526;14.974;2024-01-16T03:48:01;5.60;;;1.20;;
77234;SDS011;66253;50.526;14.974;2024-01-16T03:50:30;5.20;;;2.00;;
77234;SDS011;66253;50.526;14.974;2024-01-16T03:52:58;4.80;;;2.60;;
77234;SDS011;66253;50.526;14.974;2024-01-16T03:55:27;3.80;;;1.00;;
77234;SDS011;66253;50.526;14.974;2024-01-16T03:57:56;4.90;;;1.10;;
77234;SDS011;66253;50.526;14.974;2024-01-16T04:00:24;3.70;;;1.40;;
77234;SDS011;66253;50.526;14.974;2024-01-16T04:02:52;3.30;;;1.00;;
77234;SDS011;66253;50.526;14.974;2024-01-16T04:05:21;4.80;;;1.40;;
77234;SDS011;66253;50.526;14.974;2024-01-16T04:07:49;3.60;;;0.90;;
77234;SDS011;66253;50.526;14.974;2024-01-16T04:10:17;4.00;;;1.50;;
77234;SDS011;66253;50.526;14.974;2024-01-16T04:12:46;3.80;;;1.20;;
77234;SDS011;66253;50.526;14.974;2024-01-16T04:15:14;5.60;;;1.70;;
77234;SDS011;66253;50.526;14.974;2024-01-16T04:17:43;4.10;;;1.50;;
77234;SDS011;66253;50.526;14.974;2024-01-16T04:20:11;3.70;;;1.30;;
77234;SDS011;66253;50.526;14.974;2024-01-16T04:22:42;3.50;;;1.10;;
77234;SDS011;66253;50.526;14.974;2024-01-16T04:25:10;2.20;;;0.60;;
77234;SDS011;66253;50.526;14.974;2024-01-16T04:27:38;3.90;;;1.10;;
77234;SDS011;66253;50.526;14.974;2024-01-16T04:30:08;3.10;;;1.00;;
77234;SDS011;66253;50.526;14.974;2024-01-16T04:32:37;3.40;;;1.10;;
77234;SDS011;66253;50.526;14.974;2024-01-16T04:35:05;6.50;;;1.60;;
77234;SDS011;66253;50.526;14.974;2024-01-16T04:37:34;5.10;;;1.10;;
77234;SDS011;66253;50.526;14.974;2024-01-16T04:40:03;5.20;;;1.40;;
77234;SDS011;66253;50.526;14.974;2024-01-16T04:42:32;3.60;;;1.00;;
77234;SDS011;66253;50.526;14.974;2024-01-16T04:45:00;3.70;;;0.80;;
77234;SDS011;66253;50.526;14.974;2024-01-16T04:47:29;4.00;;;1.20;;
77234;SDS011;66253;50.526;14.974;2024-01-16T04:49:58;3.60;;;0.80;;
77234;SDS011;66253;50.526;14.974;2024-01-16T04:52:26;4.60;;;1.10;;
77234;SDS011;66253;50.526;14.974;2024-01-16T04:54:54;3.50;;;1.10;;
77234;SDS011;66253;50.526;14.974;2024-01-16T04:57:22;4.00;;;1.90;;
77234;SDS011;66253;50.526;14.974;2024-01-16T04:59:51;4.10;;;1.60;;
77234;SDS011;66253;50.526;14.974;2024-01-16T05:02:21;3.90;;;1.30;;
77234;SDS011;66253;50.526;14.974;2024-01-16T05:04:49;3.70;;;1.10;;
77234;SDS011;66253;50.526;14.974;2024-01-16T05:07:18;2.50;;;0.80;;
77234;SDS011;66253;50.526;14.974;2024-01-16T05:09:46;5.40;;;2.30;;
77234;SDS011;66253;50.526;14.974;2024-01-16T05:12:14;2.90;;;0.80;;
77234;SDS011;66253;50.526;14.974;2024-01-16T05:14:43;2.30;;;0.50;;
77234;SDS011;66253;50.526;14.974;2024-01-16T05:17:11;4.60;;;0.80;;
77234;SDS011;66253;50.526;14.974;2024-01-16T05:19:39;3.50;;;1.00;;
77234;SDS011;66253;50.526;14.974;2024-01-16T05:22:09;2.70;;;1.10;;
77234;SDS011;66253;50.526;14.974;2024-01-16T05:24:37;2.10;;;0.50;;
77234;SDS011;66253;50.526;14.974;2024-01-16T05:27:06;2.20;;;0.60;;
77234;SDS011;66253;50.526;14.974;2024-01-16T05:29:34;2.10;;;0.60;;
77234;SDS011;66253;50.526;14.974;2024-01-16T05:32:02;3.60;;;0.60;;
77234;SDS011;66253;50.526;14.974;2024-01-16T05:34:31;1.90;;;0.40;;
77234;SDS011;66253;50.526;14.974;2024-01-16T05:36:59;4.70;;;0.60;;
77234;SDS011;66253;50.526;14.974;2024-01-16T05:39:28;2.70;;;0.50;;
77234;SDS011;66253;50.526;14.974;2024-01-16T05:41:56;2.30;;;0.50;;
77234;SDS011;66253;50.526;14.974;2024-01-16T05:44:25;2.10;;;1.00;;
77234;SDS011;66253;50.526;14.974;2024-01-16T05:46:53;3.50;;;0.50;;
77234;SDS011;66253;50.526;14.974;2024-01-16T05:49:22;2.50;;;0.30;;
77234;SDS011;66253;50.526;14.974;2024-01-16T05:51:50;6.70;;;1.00;;
77234;SDS011;66253;50.526;14.974;2024-01-16T05:54:18;7.00;;;0.70;;
77234;SDS011;66253;50.526;14.974;2024-01-16T05:56:47;5.80;;;1.10;;
77234;SDS011;66253;50.526;14.974;2024-01-16T05:59:15;4.30;;;1.50;;
77234;SDS011;66253;50.526;14.974;2024-01-16T06:01:43;3.30;;;1.10;;
77234;SDS011;66253;50.526;14.974;2024-01-16T06:04:12;4.30;;;0.70;;
77234;SDS011;66253;50.526;14.974;2024-01-16T06:06:42;3.20;;;0.50;;
77234;SDS011;66253;50.526;14.974;2024-01-16T06:09:10;5.10;;;0.50;;
77234;SDS011;66253;50.526;14.974;2024-01-16T06:11:39;1.60;;;0.50;;
77234;SDS011;66253;50.526;14.974;2024-01-16T06:14:08;1.70;;;0.40;;
77234;SDS011;66253;50.526;14.974;2024-01-16T06:16:36;3.10;;;0.50;;
77234;SDS011;66253;50.526;14.974;2024-01-16T06:19:04;2.60;;;0.50;;
77234;SDS011;66253;50.526;14.974;2024-01-16T06:21:33;3.20;;;0.60;;
77234;SDS011;66253;50.526;14.974;2024-01-16T06:24:01;5.10;;;0.80;;
77234;SDS011;66253;50.526;14.974;2024-01-16T06:26:29;14.50;;;6.10;;
77234;SDS011;66253;50.526;14.974;2024-01-16T06:28:58;10.20;;;3.70;;
77234;SDS011;66253;50.526;14.974;2024-01-16T06:31:26;6.40;;;2.10;;
77234;SDS011;66253;50.526;14.974;2024-01-16T06:33:54;5.40;;;1.80;;
77234;SDS011;66253;50.526;14.974;2024-01-16T06:36:22;4.00;;;0.90;;
77234;SDS011;66253;50.526;14.974;2024-01-16T06:38:51;4.90;;;1.60;;
77234;SDS011;66253;50.526;14.974;2024-01-16T06:41:19;5.30;;;1.30;;
77234;SDS011;66253;50.526;14.974;2024-01-16T06:43:47;2.90;;;1.00;;
77234;SDS011;66253;50.526;14.974;2024-01-16T06:46:15;3.90;;;1.20;;
77234;SDS011;66253;50.526;14.974;2024-01-16T06:48:44;6.70;;;3.00;;
77234;SDS011;66253;50.526;14.974;2024-01-16T06:51:12;6.60;;;2.60;;
77234;SDS011;66253;50.526;14.974;2024-01-16T06:53:40;5.00;;;1.70;;
77234;SDS011;66253;50.526;14.974;2024-01-16T06:56:09;4.00;;;1.70;;
77234;SDS011;66253;50.526;14.974;2024-01-16T06:58:37;3.10;;;0.90;;
77234;SDS011;66253;50.526;14.974;2024-01-16T07:01:05;4.20;;;1.00;;
77234;SDS011;66253;50.526;14.974;2024-01-16T07:03:35;3.40;;;0.90;;
77234;SDS011;66253;50.526;14.974;2024-01-16T07:06:04;3.90;;;1.30;;
77234;SDS011;66253;50.526;14.974;2024-01-16T07:08:32;4.70;;;1.60;;
77234;SDS011;66253;50.526;14.974;2024-01-16T07:11:00;5.60;;;2.10;;
77234;SDS011;66253;50.526;14.974;2024-01-16T07:13:29;4.10;;;1.20;;
77234;SDS011;66253;50.526;14.974;2024-01-16T07:15:57;5.90;;;1.60;;
77234;SDS011;66253;50.526;14.974;2024-01-16T07:18:26;4.40;;;1.60;;
77234;SDS011;66253;50.526;14.974;2024-01-16T07:20:55;5.40;;;1.40;;
77234;SDS011;66253;50.526;14.974;2024-01-16T07:23:23;4.80;;;1.00;;
77234;SDS011;66253;50.526;14.974;2024-01-16T07:25:51;4.00;;;0.80;;
77234;SDS011;66253;50.526;14.974;2024-01-16T07:28:20;3.60;;;1.10;;
77234;SDS011;66253;50.526;14.974;2024-01-16T07:30:48;5.00;;;1.40;;
77234;SDS011;66253;50.526;14.974;2024-01-16T07:35:45;3.60;;;0.70;;
77234;SDS011;66253;50.526;14.974;2024-01-16T07:38:13;2.40;;;0.70;;
77234;SDS011;66253;50.526;14.974;2024-01-16T07:40:41;2.70;;;0.60;;
77234;SDS011;66253;50.526;14.974;2024-01-16T07:43:10;3.80;;;1.20;;
77234;SDS011;66253;50.526;14.974;2024-01-16T07:45:38;2.50;;;0.70;;
77234;SDS011;66253;50.526;14.974;2024-01-16T07:48:06;5.00;;;1.00;;
77234;SDS011;66253;50.526;14.974;2024-01-16T07:50:35;2.80;;;0.60;;
77234;SDS011;66253;50.526;14.974;2024-01-16T07:53:06;3.60;;;0.80;;
77234;SDS011;66253;50.526;14.974;2024-01-16T07:55:35;3.30;;;0.70;;
77234;SDS011;66253;50.526;14.974;2024-01-16T07:58:03;6.80;;;1.20;;
77234;SDS011;66253;50.526;14.974;2024-01-16T08:00:31;4.40;;;1.40;;
77234;SDS011;66253;50.526;14.974;2024-01-16T08:02:59;6.80;;;2.50;;
77234;SDS011;66253;50.526;14.974;2024-01-16T08:05:28;15.70;;;6.20;;
77234;SDS011;66253;50.526;14.974;2024-01-16T08:07:56;19.30;;;10.70;;
77234;SDS011;66253;50.526;14.974;2024-01-16T08:10:25;16.50;;;10.00;;
77234;SDS011;66253;50.526;14.974;2024-01-16T08:12:53;13.10;;;9.80;;
77234;SDS011;66253;50.526;14.974;2024-01-16T08:15:22;7.60;;;3.80;;
77234;SDS011;66253;50.526;14.974;2024-01-16T08:17:50;8.60;;;4.20;;
77234;SDS011;66253;50.526;14.974;2024-01-16T08:20:18;11.40;;;5.70;;
77234;SDS011;66253;50.526;14.974;2024-01-16T08:22:46;9.70;;;3.70;;
77234;SDS011;66253;50.526;14.974;2024-01-16T08:25:15;7.70;;;3.10;;
77234;SDS011;66253;50.526;14.974;2024-01-16T08:27:43;6.30;;;2.00;;
77234;SDS011;66253;50.526;14.974;2024-01-16T08:30:12;6.50;;;2.60;;
77234;SDS011;66253;50.526;14.974;2024-01-16T08:32:40;4.90;;;1.40;;
77234;SDS011;66253;50.526;14.974;2024-01-16T08:35:09;7.00;;;2.60;;
77234;SDS011;66253;50.526;14.974;2024-01-16T08:37:37;7.80;;;3.20;;
77234;SDS011;66253;50.526;14.974;2024-01-16T08:40:08;5.30;;;2.20;;
77234;SDS011;66253;50.526;14.974;2024-01-16T08:42:37;5.10;;;1.90;;
77234;SDS011;66253;50.526;14.974;2024-01-16T08:45:05;3.10;;;1.10;;
77234;SDS011;66253;50.526;14.974;2024-01-16T08:47:34;3.60;;;1.60;;
77234;SDS011;66253;50.526;14.974;2024-01-16T08:50:03;4.10;;;1.70;;
77234;SDS011;66253;50.526;14.974;2024-01-16T08:52:32;4.10;;;2.20;;
77234;SDS011;66253;50.526;14.974;2024-01-16T08:55:00;6.60;;;1.80;;
77234;SDS011;66253;50.526;14.974;2024-01-16T08:57:29;4.10;;;1.50;;
77234;SDS011;66253;50.526;14.974;2024-01-16T08:59:58;3.20;;;0.80;;
77234;SDS011;66253;50.526;14.974;2024-01-16T09:02:26;3.70;;;1.00;;
77234;SDS011;66253;50.526;14.974;2024-01-16T09:04:55;3.50;;;1.20;;
77234;SDS011;66253;50.526;14.974;2024-01-16T09:07:23;3.60;;;0.90;;
77234;SDS011;66253;50.526;14.974;2024-01-16T09:09:53;3.80;;;1.30;;
77234;SDS011;66253;50.526;14.974;2024-01-16T09:12:21;2.90;;;1.30;;
77234;SDS011;66253;50.526;14.974;2024-01-16T09:14:50;3.70;;;1.10;;
77234;SDS011;66253;50.526;14.974;2024-01-16T09:17:18;3.20;;;0.90;;
77234;SDS011;66253;50.526;14.974;2024-01-16T09:19:46;4.50;;;0.70;;
77234;SDS011;66253;50.526;14.974;2024-01-16T09:22:15;7.20;;;2.10;;
77234;SDS011;66253;50.526;14.974;2024-01-16T09:24:43;6.00;;;1.30;;
77234;SDS011;66253;50.526;14.974;2024-01-16T09:27:11;3.20;;;1.00;;
77234;SDS011;66253;50.526;14.974;2024-01-16T09:29:40;5.40;;;1.40;;
77234;SDS011;66253;50.526;14.974;2024-01-16T09:32:08;4.50;;;1.00;;
77234;SDS011;66253;50.526;14.974;2024-01-16T09:34:36;4.20;;;1.20;;
77234;SDS011;66253;50.526;14.974;2024-01-16T09:37:05;3.30;;;1.20;;
77234;SDS011;66253;50.526;14.974;2024-01-16T09:39:33;4.80;;;1.20;;
77234;SDS011;66253;50.526;14.974;2024-01-16T09:42:01;3.00;;;0.70;;
77234;SDS011;66253;50.526;14.974;2024-01-16T09:44:30;11.20;;;3.70;;
77234;SDS011;66253;50.526;14.974;2024-01-16T09:46:58;6.10;;;2.10;;
77234;SDS011;66253;50.526;14.974;2024-01-16T09:49:29;4.20;;;1.60;;
77234;SDS011;66253;50.526;14.974;2024-01-16T09:51:57;5.20;;;1.50;;
77234;SDS011;66253;50.526;14.974;2024-01-16T09:54:26;3.90;;;1.30;;
77234;SDS011;66253;50.526;14.974;2024-01-16T09:56:54;4.40;;;1.20;;
77234;SDS011;66253;50.526;14.974;2024-01-16T09:59:25;7.80;;;2.10;;
77234;SDS011;66253;50.526;14.974;2024-01-16T10:01:55;4.70;;;1.30;;
77234;SDS011;66253;50.526;14.974;2024-01-16T10:04:24;4.20;;;1.30;;
77234;SDS011;66253;50.526;14.974;2024-01-16T10:06:52;5.00;;;1.10;;
77234;SDS011;66253;50.526;14.974;2024-01-16T10:09:23;5.20;;;1.20;;
77234;SDS011;66253;50.526;14.974;2024-01-16T10:11:51;6.80;;;1.40;;
77234;SDS011;66253;50.526;14.974;2024-01-16T10:14:20;4.30;;;1.20;;
77234;SDS011;66253;50.526;14.974;2024-01-16T10:16:56;3.50;;;1.10;;
77234;SDS011;66253;50.526;14.974;2024-01-16T10:19:26;4.70;;;1.00;;
77234;SDS011;66253;50.526;14.974;2024-01-16T10:22:01;3.90;;;1.00;;
77234;SDS011;66253;50.526;14.974;2024-01-16T10:24:30;7.30;;;1.50;;
77234;SDS011;66253;50.526;14.974;2024-01-16T10:26:59;6.50;;;1.40;;
77234;SDS011;66253;50.526;14.974;2024-01-16T10:29:28;6.00;;;1.30;;
77234;SDS011;66253;50.526;14.974;2024-01-16T10:31:57;3.60;;;1.00;;
77234;SDS011;66253;50.526;14.974;2024-01-16T10:34:25;9.80;;;2.00;;
77234;SDS011;66253;50.526;14.974;2024-01-16T10:36:59;5.00;;;1.10;;
77234;SDS011;66253;50.526;14.974;2024-01-16T10:39:27;9.30;;;1.90;;
77234;SDS011;66253;50.526;14.974;2024-01-16T10:41:56;4.40;;;1.10;;
77234;SDS011;66253;50.526;14.974;2024-01-16T10:44:24;3.20;;;0.80;;
77234;SDS011;66253;50.526;14.974;2024-01-16T10:46:53;3.90;;;1.00;;
77234;SDS011;66253;50.526;14.974;2024-01-16T10:49:37;5.00;;;1.40;;
77234;SDS011;66253;50.526;14.974;2024-01-16T10:52:06;5.00;;;1.30;;
77234;SDS011;66253;50.526;14.974;2024-01-16T10:54:38;4.70;;;1.20;;
77234;SDS011;66253;50.526;14.974;2024-01-16T10:57:09;3.00;;;0.90;;
77234;SDS011;66253;50.526;14.974;2024-01-16T10:59:40;3.70;;;0.70;;
77234;SDS011;66253;50.526;14.974;2024-01-16T11:02:15;3.60;;;0.70;;
77234;SDS011;66253;50.526;14.974;2024-01-16T11:04:47;3.20;;;0.80;;
77234;SDS011;66253;50.526;14.974;2024-01-16T11:07:17;3.20;;;0.80;;
77234;SDS011;66253;50.526;14.974;2024-01-16T11:09:46;3.80;;;0.80;;
77234;SDS011;66253;50.526;14.974;2024-01-16T11:12:15;4.30;;;0.80;;
77234;SDS011;66253;50.526;14.974;2024-01-16T11:14:45;5.20;;;1.80;;
77234;SDS011;66253;50.526;14.974;2024-01-16T11:17:16;4.30;;;1.50;;
77234;SDS011;66253;50.526;14.974;2024-01-16T11:19:45;7.10;;;2.30;;
77234;SDS011;66253;50.526;14.974;2024-01-16T11:22:14;4.10;;;1.20;;
77234;SDS011;66253;50.526;14.974;2024-01-16T11:24:44;4.40;;;0.90;;
77234;SDS011;66253;50.526;14.974;2024-01-16T11:27:33;3.10;;;0.90;;
77234;SDS011;66253;50.526;14.974;2024-01-16T11:30:01;4.40;;;0.90;;
77234;SDS011;66253;50.526;14.974;2024-01-16T11:32:34;4.20;;;1.20;;
77234;SDS011;66253;50.526;14.974;2024-01-16T11:35:03;6.80;;;1.90;;
77234;SDS011;66253;50.526;14.974;2024-01-16T11:37:33;6.00;;;2.30;;
77234;SDS011;66253;50.526;14.974;2024-01-16T11:42:58;6.40;;;2.30;;
77234;SDS011;66253;50.526;14.974;2024-01-16T11:45:49;4.20;;;1.30;;
77234;SDS011;66253;50.526;14.974;2024-01-16T11:48:18;5.30;;;1.60;;
77234;SDS011;66253;50.526;14.974;2024-01-16T11:50:46;7.30;;;2.00;;
77234;SDS011;66253;50.526;14.974;2024-01-16T11:53:37;6.40;;;1.20;;
77234;SDS011;66253;50.526;14.974;2024-01-16T11:56:25;6.50;;;2.00;;
77234;SDS011;66253;50.526;14.974;2024-01-16T12:02:23;6.30;;;1.60;;
77234;SDS011;66253;50.526;14.974;2024-01-16T12:05:05;4.00;;;1.70;;
77234;SDS011;66253;50.526;14.974;2024-01-16T12:07:44;8.20;;;2.00;;
77234;SDS011;66253;50.526;14.974;2024-01-16T12:10:14;8.10;;;2.50;;
77234;SDS011;66253;50.526;14.974;2024-01-16T12:12:42;4.60;;;1.50;;
77234;SDS011;66253;50.526;14.974;2024-01-16T12:15:14;6.80;;;1.60;;
77234;SDS011;66253;50.526;14.974;2024-01-16T12:17:57;5.40;;;1.90;;
77234;SDS011;66253;50.526;14.974;2024-01-16T12:20:31;5.50;;;1.40;;
77234;SDS011;66253;50.526;14.974;2024-01-16T12:23:01;3.30;;;0.70;;
77234;SDS011;66253;50.526;14.974;2024-01-16T12:25:30;4.80;;;0.70;;
77234;SDS011;66253;50.526;14.974;2024-01-16T12:28:00;3.10;;;0.70;;
77234;SDS011;66253;50.526;14.974;2024-01-16T12:30:30;3.00;;;0.70;;
77234;SDS011;66253;50.526;14.974;2024-01-16T12:33:05;4.10;;;0.90;;
77234;SDS011;66253;50.526;14.974;2024-01-16T12:35:35;3.20;;;0.90;;
77234;SDS011;66253;50.526;14.974;2024-01-16T12:38:05;3.80;;;1.30;;
77234;SDS011;66253;50.526;14.974;2024-01-16T12:40:35;5.50;;;1.30;;
77234;SDS011;66253;50.526;14.974;2024-01-16T12:43:05;5.90;;;1.80;;
77234;SDS011;66253;50.526;14.974;2024-01-16T12:45:34;5.90;;;1.80;;
77234;SDS011;66253;50.526;14.974;2024-01-16T12:48:04;4.10;;;1.20;;
77234;SDS011;66253;50.526;14.974;2024-01-16T12:50:32;4.00;;;1.10;;
77234;SDS011;66253;50.526;14.974;2024-01-16T12:53:05;4.00;;;1.20;;
77234;SDS011;66253;50.526;14.974;2024-01-16T12:55:35;5.50;;;1.20;;
77234;SDS011;66253;50.526;14.974;2024-01-16T12:58:14;4.50;;;1.00;;
77234;SDS011;66253;50.526;14.974;2024-01-16T13:00:44;3.40;;;1.10;;
77234;SDS011;66253;50.526;14.974;2024-01-16T13:03:16;3.20;;;1.30;;
77234;SDS011;66253;50.526;14.974;2024-01-16T13:05:46;9.90;;;3.60;;
77234;SDS011;66253;50.526;14.974;2024-01-16T13:08:23;6.80;;;2.70;;
77234;SDS011;66253;50.526;14.974;2024-01-16T13:11:04;6.10;;;2.00;;
77234;SDS011;66253;50.526;14.974;2024-01-16T13:13:33;4.90;;;1.30;;
77234;SDS011;66253;50.526;14.974;2024-01-16T13:16:02;3.90;;;1.50;;
77234;SDS011;66253;50.526;14.974;2024-01-16T13:18:31;4.80;;;1.30;;
77234;SDS011;66253;50.526;14.974;2024-01-16T13:21:00;3.60;;;0.90;;
77234;SDS011;66253;50.526;14.974;2024-01-16T13:23:29;6.70;;;1.40;;
77234;SDS011;66253;50.526;14.974;2024-01-16T13:25:57;6.20;;;1.60;;
77234;SDS011;66253;50.526;14.974;2024-01-16T13:28:26;4.50;;;1.20;;
77234;SDS011;66253;50.526;14.974;2024-01-16T13:30:55;6.00;;;1.00;;
77234;SDS011;66253;50.526;14.974;2024-01-16T13:33:24;4.50;;;0.80;;
77234;SDS011;66253;50.526;14.974;2024-01-16T13:35:52;3.80;;;0.80;;
77234;SDS011;66253;50.526;14.974;2024-01-16T13:38:23;4.00;;;1.20;;
77234;SDS011;66253;50.526;14.974;2024-01-16T13:40:51;3.90;;;1.00;;
77234;SDS011;66253;50.526;14.974;2024-01-16T13:43:19;4.90;;;1.30;;
77234;SDS011;66253;50.526;14.974;2024-01-16T13:45:48;4.00;;;1.30;;
77234;SDS011;66253;50.526;14.974;2024-01-16T13:48:16;4.50;;;1.10;;
77234;SDS011;66253;50.526;14.974;2024-01-16T13:50:44;6.00;;;1.90;;
77234;SDS011;66253;50.526;14.974;2024-01-16T13:53:12;6.00;;;2.50;;
77234;SDS011;66253;50.526;14.974;2024-01-16T13:55:41;5.70;;;1.90;;
77234;SDS011;66253;50.526;14.974;2024-01-16T13:58:10;6.60;;;2.80;;
77234;SDS011;66253;50.526;14.974;2024-01-16T14:00:38;6.50;;;3.10;;
77234;SDS011;66253;50.526;14.974;2024-01-16T14:03:06;5.70;;;2.60;;
77234;SDS011;66253;50.526;14.974;2024-01-16T14:05:35;6.60;;;2.70;;
77234;SDS011;66253;50.526;14.974;2024-01-16T14:08:04;9.70;;;3.80;;
77234;SDS011;66253;50.526;14.974;2024-01-16T14:10:32;6.50;;;2.10;;
77234;SDS011;66253;50.526;14.974;2024-01-16T14:13:01;6.40;;;2.20;;
77234;SDS011;66253;50.526;14.974;2024-01-16T14:15:30;7.50;;;3.10;;
77234;SDS011;66253;50.526;14.974;2024-01-16T14:17:59;12.10;;;4.00;;
77234;SDS011;66253;50.526;14.974;2024-01-16T14:20:28;9.60;;;4.00;;
77234;SDS011;66253;50.526;14.974;2024-01-16T14:22:56;10.20;;;4.00;;
77234;SDS011;66253;50.526;14.974;2024-01-16T14:25:25;17.90;;;7.30;;
77234;SDS011;66253;50.526;14.974;2024-01-16T14:27:57;16.80;;;7.50;;
77234;SDS011;66253;50.526;14.974;2024-01-16T14:30:26;13.50;;;6.50;;
77234;SDS011;66253;50.526;14.974;2024-01-16T14:32:55;17.30;;;9.00;;
77234;SDS011;66253;50.526;14.974;2024-01-16T14:35:23;20.90;;;9.50;;
77234;SDS011;66253;50.526;14.974;2024-01-16T14:37:51;21.30;;;10.50;;
77234;SDS011;66253;50.526;14.974;2024-01-16T14:40:20;19.10;;;8.70;;
77234;SDS011;66253;50.526;14.974;2024-01-16T14:42:48;15.10;;;6.80;;
77234;SDS011;66253;50.526;14.974;2024-01-16T14:45:17;19.40;;;8.50;;
77234;SDS011;66253;50.526;14.974;2024-01-16T14:47:45;19.70;;;9.60;;
77234;SDS011;66253;50.526;14.974;2024-01-16T14:50:13;19.90;;;10.00;;
77234;SDS011;66253;50.526;14.974;2024-01-16T14:52:42;13.20;;;6.50;;
77234;SDS011;66253;50.526;14.974;2024-01-16T14:55:10;9.50;;;4.30;;